Time;durP1;ratioP1;P1;durP2;ratioP2;P2;SDS_P1;SDS_P2;PMS_P1;PMS_P2;Temp;Humidity;BMP_temperature;BMP_pressure;BME280_temperature;BME280_humidity;BME280_pressure;Samples;Min_cycle;Max_cycle;Signal;HPM_P1;HPM_P2
2022/03/30 00:01:21;;;;;;;19.27;11.00;;;10.80;92.70;;;;;;5032412;28;20234;-63
2022/03/30 00:03:49;;;;;;;18.67;11.60;;;10.70;92.70;;;;;;5032663;28;20203;-63
2022/03/30 00:06:16;;;;;;;22.23;11.33;;;10.70;92.70;;;;;;5032367;28;20206;-63
2022/03/30 00:08:43;;;;;;;23.50;12.83;;;10.80;92.70;;;;;;5032331;28;20660;-63
2022/03/30 00:11:11;;;;;;;23.93;13.47;;;10.80;92.70;;;;;;5032494;28;20209;-63
2022/03/30 00:13:39;;;;;;;26.17;13.33;;;10.90;92.70;;;;;;5032275;28;20623;-63
2022/03/30 00:16:07;;;;;;;22.43;11.87;;;10.90;92.70;;;;;;5032272;28;20214;-63
2022/03/30 00:18:34;;;;;;;17.50;12.70;;;11.00;92.70;;;;;;5032408;28;20230;-63
2022/03/30 00:21:04;;;;;;;23.80;12.67;;;11.00;92.70;;;;;;5032407;28;20233;-63
2022/03/30 00:23:30;;;;;;;24.80;11.70;;;11.10;92.70;;;;;;5032747;28;20711;-63
2022/03/30 00:25:57;;;;;;;17.47;11.53;;;11.10;92.70;;;;;;5032133;28;20256;-63
2022/03/30 00:28:27;;;;;;;21.37;12.07;;;11.10;92.70;;;;;;5032025;28;20237;-63
2022/03/30 00:30:54;;;;;;;19.73;11.40;;;11.10;93.00;;;;;;5032373;28;20209;-63
2022/03/30 00:33:20;;;;;;;22.87;15.07;;;11.00;93.20;;;;;;5032199;28;20268;-63
2022/03/30 00:35:47;;;;;;;20.50;11.50;;;11.00;93.30;;;;;;5031906;28;20214;-63
2022/03/30 00:38:15;;;;;;;18.77;11.53;;;11.10;93.30;;;;;;5032101;28;20877;-63
2022/03/30 00:40:42;;;;;;;22.67;10.83;;;11.20;93.20;;;;;;5031980;28;20233;-63
2022/03/30 00:43:09;;;;;;;16.33;11.17;;;11.20;93.40;;;;;;5032086;28;20280;-63
2022/03/30 00:45:35;;;;;;;18.20;11.20;;;11.10;93.50;;;;;;5031807;28;20218;-63
2022/03/30 00:48:02;;;;;;;14.33;10.60;;;11.30;93.40;;;;;;5032002;28;20219;-63
2022/03/30 00:50:29;;;;;;;16.93;11.00;;;11.40;93.20;;;;;;5031959;28;20236;-63
2022/03/30 00:52:56;;;;;;;19.73;11.50;;;11.40;93.30;;;;;;5031963;28;20666;-63
2022/03/30 00:55:25;;;;;;;20.63;11.90;;;11.40;93.40;;;;;;5031763;28;20233;-63
2022/03/30 00:57:54;;;;;;;15.60;10.77;;;11.60;93.30;;;;;;5032179;28;20297;-63
2022/03/30 01:00:21;;;;;;;18.00;11.00;;;11.70;93.00;;;;;;5032065;28;20265;-63
2022/03/30 01:02:50;;;;;;;22.70;11.33;;;11.90;92.80;;;;;;5032119;28;20284;-63
2022/03/30 01:05:17;;;;;;;17.70;11.47;;;12.00;92.70;;;;;;5031578;28;20202;-63
2022/03/30 01:07:44;;;;;;;21.57;11.53;;;12.10;92.80;;;;;;5031956;28;20206;-63
2022/03/30 01:10:12;;;;;;;17.10;11.30;;;12.20;92.60;;;;;;5032177;28;20233;-63
2022/03/30 01:12:41;;;;;;;22.30;11.33;;;12.30;92.40;;;;;;5035718;28;20574;-63
2022/03/30 01:15:10;;;;;;;20.87;11.43;;;12.30;92.40;;;;;;5035705;28;20214;-63
2022/03/30 01:17:38;;;;;;;20.10;11.43;;;12.30;92.50;;;;;;5035886;28;20202;-63
2022/03/30 01:20:05;;;;;;;18.60;10.87;;;12.20;92.60;;;;;;5036350;28;20262;-63
2022/03/30 01:22:34;;;;;;;19.77;11.10;;;12.20;92.60;;;;;;5036252;28;20203;-63
2022/03/30 01:25:01;;;;;;;17.43;11.10;;;12.30;92.50;;;;;;5036015;28;20293;-63
2022/03/30 01:27:28;;;;;;;20.27;11.20;;;12.40;92.30;;;;;;5035601;28;20217;-63
2022/03/30 01:32:40;;;;;;;20.53;11.10;;;12.50;92.00;;;;;;5035650;28;20562;-63
2022/03/30 01:35:07;;;;;;;23.83;12.50;;;12.60;92.00;;;;;;5035260;28;20260;-64
2022/03/30 01:37:35;;;;;;;18.77;11.03;;;12.70;92.10;;;;;;5035713;28;20358;-63
2022/03/30 01:40:05;;;;;;;19.43;11.33;;;12.70;92.20;;;;;;5035452;28;20313;-63
2022/03/30 01:42:33;;;;;;;19.73;11.70;;;12.80;92.20;;;;;;5035499;28;20241;-63
2022/03/30 01:45:00;;;;;;;19.43;11.30;;;12.80;92.40;;;;;;5035197;28;20206;-63
2022/03/30 01:47:27;;;;;;;21.87;11.87;;;12.80;92.30;;;;;;5034914;28;20248;-63
2022/03/30 01:49:53;;;;;;;21.07;12.03;;;12.80;92.30;;;;;;5058196;22;20230;-62
2022/03/30 01:52:20;;;;;;;17.77;11.50;;;12.70;92.50;;;;;;5034787;28;20257;-62
2022/03/30 01:54:49;;;;;;;20.70;11.17;;;12.70;92.10;;;;;;5035024;28;20214;-62
2022/03/30 01:57:16;;;;;;;24.33;11.20;;;12.70;92.10;;;;;;5035000;28;20638;-62
2022/03/30 01:59:44;;;;;;;18.47;12.03;;;12.50;92.50;;;;;;5034701;28;20234;-62
2022/03/30 02:02:12;;;;;;;20.03;12.00;;;12.30;92.90;;;;;;5034515;28;20226;-62
2022/03/30 02:04:38;;;;;;;18.73;12.00;;;12.20;93.20;;;;;;5034483;28;20210;-62
2022/03/30 02:07:08;;;;;;;23.73;12.20;;;12.10;93.30;;;;;;5034441;28;20210;-62
2022/03/30 02:09:34;;;;;;;17.30;12.30;;;12.20;93.40;;;;;;5034569;28;20236;-62
2022/03/30 02:12:03;;;;;;;17.17;10.77;;;12.10;93.60;;;;;;5034497;28;20693;-62
2022/03/30 02:14:29;;;;;;;17.43;11.93;;;12.00;93.70;;;;;;5034285;28;20260;-62
2022/03/30 02:16:56;;;;;;;20.57;11.37;;;11.90;93.90;;;;;;5034412;28;20206;-62
2022/03/30 02:19:23;;;;;;;22.57;11.50;;;11.90;94.00;;;;;;5034363;28;20283;-62
2022/03/30 02:21:49;;;;;;;18.77;11.63;;;12.00;94.10;;;;;;5033492;28;20226;-62
2022/03/30 02:24:16;;;;;;;19.37;12.07;;;11.90;94.50;;;;;;5034234;28;20609;-62
2022/03/30 02:26:43;;;;;;;16.50;11.50;;;11.90;94.50;;;;;;5033873;28;20681;-62
2022/03/30 02:29:11;;;;;;;18.10;12.23;;;11.90;94.70;;;;;;5034041;28;20272;-62
2022/03/30 02:31:38;;;;;;;20.60;12.00;;;12.00;94.70;;;;;;5034369;28;20232;-62
2022/03/30 02:34:04;;;;;;;17.57;12.43;;;11.90;95.10;;;;;;5034429;28;20236;-62
2022/03/30 02:36:31;;;;;;;18.13;11.67;;;11.90;95.50;;;;;;5033847;28;20279;-62
2022/03/30 02:38:58;;;;;;;17.87;11.27;;;11.90;95.50;;;;;;5034022;28;20750;-62
2022/03/30 02:41:25;;;;;;;19.57;12.00;;;12.00;95.60;;;;;;5033963;28;20219;-62
2022/03/30 02:43:51;;;;;;;19.23;12.53;;;11.90;95.90;;;;;;5034065;28;20272;-62
2022/03/30 02:46:19;;;;;;;20.27;11.90;;;11.90;96.20;;;;;;5033701;28;20210;-62
2022/03/30 02:48:46;;;;;;;17.30;12.50;;;11.80;96.40;;;;;;5033738;28;20234;-62
2022/03/30 02:51:13;;;;;;;22.07;13.33;;;11.80;96.90;;;;;;5033903;28;20237;-62
2022/03/30 02:53:40;;;;;;;20.23;12.57;;;11.80;97.00;;;;;;5033763;28;20210;-62
2022/03/30 02:56:07;;;;;;;16.40;12.10;;;11.70;97.10;;;;;;5033400;28;20206;-61
2022/03/30 02:58:33;;;;;;;19.47;12.00;;;11.70;97.30;;;;;;5033652;28;20209;-62
2022/03/30 03:01:00;;;;;;;19.60;13.23;;;11.70;97.50;;;;;;5033704;28;20226;-62
2022/03/30 03:03:28;;;;;;;18.83;11.87;;;11.70;97.40;;;;;;5033661;28;20203;-61
2022/03/30 03:05:55;;;;;;;18.13;12.40;;;11.60;97.30;;;;;;5033350;28;20206;-62
2022/03/30 03:08:22;;;;;;;17.07;12.50;;;11.60;97.60;;;;;;5033241;28;20403;-62
2022/03/30 03:10:50;;;;;;;21.37;14.23;;;11.60;97.90;;;;;;5033284;28;20617;-62
2022/03/30 03:13:17;;;;;;;22.23;14.43;;;11.60;97.90;;;;;;5033236;28;20556;-62
2022/03/30 03:15:45;;;;;;;22.70;14.17;;;11.70;97.90;;;;;;5032664;28;20690;-63
2022/03/30 03:18:13;;;;;;;19.40;13.03;;;11.80;97.90;;;;;;5033156;28;20206;-62
2022/03/30 03:20:43;;;;;;;17.70;12.93;;;11.80;97.70;;;;;;5033003;28;20316;-62
2022/03/30 03:23:11;;;;;;;22.03;13.83;;;11.90;97.70;;;;;;5033182;28;20289;-62
2022/03/30 03:25:39;;;;;;;21.73;13.87;;;11.90;97.50;;;;;;5033031;28;20272;-62
2022/03/30 03:28:07;;;;;;;24.30;14.37;;;12.00;97.40;;;;;;5033184;28;20206;-62
2022/03/30 03:30:33;;;;;;;27.20;17.60;;;12.10;97.10;;;;;;5032983;28;20288;-62
2022/03/30 03:33:01;;;;;;;21.80;14.83;;;12.20;97.00;;;;;;5032979;28;20241;-62
2022/03/30 03:35:28;;;;;;;29.30;14.60;;;12.20;97.00;;;;;;5032730;28;20207;-62
2022/03/30 03:37:57;;;;;;;20.53;13.23;;;12.30;97.00;;;;;;5032778;28;20298;-62
2022/03/30 03:40:23;;;;;;;26.03;17.00;;;12.10;97.20;;;;;;5032907;28;20280;-62
2022/03/30 03:42:50;;;;;;;21.43;12.97;;;12.00;97.30;;;;;;5032995;28;20583;-62
2022/03/30 03:45:18;;;;;;;22.17;12.37;;;12.10;97.30;;;;;;5032870;28;20720;-64
2022/03/30 03:47:46;;;;;;;19.20;13.20;;;12.00;97.70;;;;;;5032487;28;20297;-63
2022/03/30 03:50:12;;;;;;;17.43;11.63;;;11.80;97.90;;;;;;5032474;28;20237;-63
2022/03/30 03:52:39;;;;;;;18.97;12.37;;;11.80;98.00;;;;;;5032540;28;20209;-63
2022/03/30 03:55:09;;;;;;;20.67;11.97;;;11.80;98.00;;;;;;5032736;28;20272;-63
2022/03/30 03:57:38;;;;;;;19.90;13.00;;;11.80;98.00;;;;;;5032609;28;20210;-63
2022/03/30 04:00:06;;;;;;;19.57;12.57;;;11.90;97.90;;;;;;5032581;28;20230;-63
2022/03/30 04:02:33;;;;;;;17.37;12.87;;;12.00;97.80;;;;;;5032399;28;20736;-63
2022/03/30 04:04:59;;;;;;;23.03;13.23;;;12.10;97.90;;;;;;5032307;28;20213;-63
2022/03/30 04:07:26;;;;;;;19.23;12.60;;;12.10;97.90;;;;;;5032383;28;20206;-63
2022/03/30 04:09:53;;;;;;;22.77;15.80;;;12.20;98.10;;;;;;5032615;28;20238;-61
2022/03/30 04:12:21;;;;;;;19.30;12.50;;;12.20;98.80;;;;;;5033065;28;20252;-63
2022/03/30 04:14:47;;;;;;;22.33;13.67;;;12.20;99.00;;;;;;5033395;28;20209;-63
2022/03/30 04:17:14;;;;;;;20.60;13.83;;;12.20;99.40;;;;;;5033419;28;20241;-62
2022/03/30 04:19:41;;;;;;;23.33;13.83;;;12.20;99.50;;;;;;5033574;28;20226;-61
2022/03/30 04:22:07;;;;;;;20.07;13.20;;;12.30;99.60;;;;;;5033226;28;20234;-61
2022/03/30 04:24:34;;;;;;;28.97;17.97;;;12.30;99.70;;;;;;5032411;28;20622;-62
2022/03/30 04:27:00;;;;;;;22.70;14.30;;;12.20;99.90;;;;;;5031821;28;20622;-62
2022/03/30 04:29:29;;;;;;;22.73;13.67;;;12.30;99.90;;;;;;5032136;28;20226;-62
2022/03/30 04:31:56;;;;;;;20.63;14.37;;;12.40;99.90;;;;;;5031960;28;20213;-62
2022/03/30 04:34:22;;;;;;;21.53;13.50;;;12.40;99.90;;;;;;5032244;28;20214;-62
2022/03/30 04:36:49;;;;;;;22.57;14.23;;;12.40;99.80;;;;;;5031691;28;20214;-61
2022/03/30 04:39:16;;;;;;;20.63;14.23;;;12.50;99.70;;;;;;5031976;28;20510;-62
2022/03/30 04:41:42;;;;;;;22.03;16.37;;;12.60;99.50;;;;;;5031814;28;20226;-62
2022/03/30 04:44:09;;;;;;;19.40;12.67;;;12.50;99.20;;;;;;5031882;28;20210;-62
2022/03/30 04:46:37;;;;;;;21.93;13.87;;;12.60;99.20;;;;;;5037177;28;20579;-62
2022/03/30 04:49:05;;;;;;;24.20;13.93;;;12.70;99.30;;;;;;5038534;28;20229;-62
2022/03/30 04:51:32;;;;;;;18.43;13.63;;;12.60;99.20;;;;;;5038432;28;20621;-62
2022/03/30 04:53:59;;;;;;;22.47;13.30;;;12.40;99.80;;;;;;5038179;28;20340;-62
2022/03/30 04:56:26;;;;;;;24.93;14.63;;;12.50;99.80;;;;;;5038148;28;20210;-62
2022/03/30 04:58:52;;;;;;;24.63;16.10;;;12.50;99.80;;;;;;5038230;28;20233;-63
2022/03/30 05:01:19;;;;;;;22.23;14.40;;;12.60;99.80;;;;;;5038132;28;20248;-62
2022/03/30 05:03:47;;;;;;;22.57;15.33;;;12.60;99.90;;;;;;5038104;28;20650;-62
2022/03/30 05:06:14;;;;;;;26.87;15.70;;;12.70;99.90;;;;;;5037909;28;20209;-63
2022/03/30 05:08:40;;;;;;;28.33;17.20;;;12.70;99.90;;;;;;5038159;28;20371;-62
2022/03/30 05:11:07;;;;;;;28.50;19.07;;;12.80;99.90;;;;;;5038178;28;20210;-63
2022/03/30 05:13:34;;;;;;;33.33;19.67;;;12.80;99.90;;;;;;5038405;28;20202;-63
2022/03/30 05:16:00;;;;;;;35.13;22.67;;;12.80;99.90;;;;;;5037669;28;20305;-62
2022/03/30 05:18:27;;;;;;;36.13;20.40;;;12.70;99.90;;;;;;5038310;28;20240;-62
2022/03/30 05:20:55;;;;;;;26.97;17.43;;;12.60;99.90;;;;;;5038144;28;20648;-62
2022/03/30 05:23:22;;;;;;;33.83;18.77;;;12.60;99.90;;;;;;5037607;28;20229;-63
2022/03/30 05:25:48;;;;;;;27.73;18.50;;;12.70;99.90;;;;;;5037223;28;20202;-63
2022/03/30 05:28:15;;;;;;;32.67;20.97;;;12.70;99.90;;;;;;5037318;28;20214;-62
2022/03/30 05:30:42;;;;;;;31.03;20.53;;;12.70;99.90;;;;;;5037725;28;20372;-63
2022/03/30 05:33:09;;;;;;;36.33;21.00;;;12.70;99.90;;;;;;5038129;28;20202;-62
2022/03/30 05:35:36;;;;;;;31.73;21.47;;;12.60;99.90;;;;;;5037216;28;20727;-62
2022/03/30 05:38:04;;;;;;;30.57;21.23;;;12.60;99.90;;;;;;5037758;28;20210;-63
2022/03/30 05:40:30;;;;;;;35.07;21.43;;;12.50;99.90;;;;;;5037546;28;20222;-63
2022/03/30 05:42:57;;;;;;;34.20;22.70;;;12.40;99.90;;;;;;5037551;28;20218;-63
2022/03/30 05:45:24;;;;;;;37.87;22.80;;;12.30;99.90;;;;;;5037866;28;20673;-62
2022/03/30 05:47:51;;;;;;;38.43;22.73;;;12.30;99.90;;;;;;5038031;28;20268;-63
2022/03/30 05:50:18;;;;;;;35.07;22.70;;;12.30;99.90;;;;;;5037821;28;20238;-63
2022/03/30 05:52:44;;;;;;;32.77;22.73;;;12.40;99.90;;;;;;5037757;28;20206;-62
2022/03/30 05:55:12;;;;;;;33.13;22.90;;;12.30;99.90;;;;;;5037961;28;20206;-62
2022/03/30 05:57:39;;;;;;;41.87;24.90;;;12.10;99.90;;;;;;5034467;28;20202;-62
2022/03/30 06:00:08;;;;;;;39.17;23.27;;;11.80;99.90;;;;;;5034830;28;20222;-62
2022/03/30 06:02:35;;;;;;;37.63;23.77;;;11.70;99.90;;;;;;5034891;28;20272;-62
2022/03/30 06:05:02;;;;;;;35.37;23.93;;;11.80;99.90;;;;;;5034803;28;20264;-62
2022/03/30 06:07:29;;;;;;;38.03;24.13;;;11.80;99.90;;;;;;5034870;28;20717;-63
2022/03/30 06:09:55;;;;;;;38.23;24.50;;;11.60;99.90;;;;;;5034517;28;20714;-62
2022/03/30 06:12:24;;;;;;;37.53;26.60;;;11.40;99.90;;;;;;5034867;28;20293;-62
2022/03/30 06:14:51;;;;;;;41.33;27.17;;;11.50;99.90;;;;;;5034811;28;20305;-62
2022/03/30 06:17:19;;;;;;;36.33;25.33;;;11.70;99.90;;;;;;5034245;28;20209;-62
2022/03/30 06:19:48;;;;;;;37.70;24.63;;;11.80;99.90;;;;;;5034484;28;20226;-63
2022/03/30 06:22:15;;;;;;;37.73;25.20;;;11.90;99.90;;;;;;5034314;28;20236;-62
2022/03/30 06:24:42;;;;;;;40.20;26.03;;;11.80;99.90;;;;;;5034534;28;20210;-62
2022/03/30 06:27:10;;;;;;;47.80;27.30;;;11.90;99.90;;;;;;5034154;28;20261;-63
2022/03/30 06:29:39;;;;;;;42.40;25.60;;;12.00;99.90;;;;;;5034161;28;20783;-62
2022/03/30 06:32:07;;;;;;;47.43;26.53;;;12.10;99.90;;;;;;5034365;28;20268;-62
2022/03/30 06:34:35;;;;;;;38.33;25.90;;;12.20;99.90;;;;;;5034201;28;20221;-62
2022/03/30 06:37:02;;;;;;;41.57;24.63;;;12.30;99.90;;;;;;5034348;28;20202;-63
2022/03/30 06:39:29;;;;;;;41.93;25.07;;;12.30;99.90;;;;;;5033963;28;20222;-63
2022/03/30 06:41:57;;;;;;;39.87;23.33;;;12.30;99.90;;;;;;5034091;28;20296;-62
2022/03/30 06:44:24;;;;;;;36.43;23.77;;;12.20;99.90;;;;;;5033945;28;20211;-61
2022/03/30 06:46:52;;;;;;;40.30;23.63;;;12.10;99.90;;;;;;5033327;28;20217;-62
2022/03/30 06:49:19;;;;;;;35.67;23.17;;;12.10;99.90;;;;;;5033488;28;20779;-61
2022/03/30 06:51:46;;;;;;;39.73;23.10;;;12.20;99.90;;;;;;5034008;28;20210;-61
2022/03/30 06:54:13;;;;;;;36.63;23.53;;;12.20;99.90;;;;;;5033655;28;20238;-61
2022/03/30 06:56:40;;;;;;;38.33;21.97;;;12.20;99.90;;;;;;5033384;28;20276;-60
2022/03/30 06:59:06;;;;;;;36.47;23.07;;;12.20;99.90;;;;;;5033540;28;20237;-60
2022/03/30 07:01:34;;;;;;;35.97;22.43;;;12.00;99.90;;;;;;5033478;28;20733;-60
2022/03/30 07:04:02;;;;;;;38.20;24.70;;;11.90;99.90;;;;;;5033219;28;20272;-60
2022/03/30 07:06:29;;;;;;;40.40;23.63;;;11.80;99.90;;;;;;5032933;28;20724;-62
2022/03/30 07:11:40;;;;;;;43.30;24.30;;;11.90;99.90;;;;;;5033471;28;20198;-60
2022/03/30 07:14:07;;;;;;;43.63;26.47;;;12.00;99.90;;;;;;5033148;28;20210;-61
2022/03/30 07:16:33;;;;;;;38.47;24.47;;;12.10;99.90;;;;;;5032821;28;20202;-61
2022/03/30 07:19:01;;;;;;;41.77;23.63;;;12.10;99.90;;;;;;5033196;28;20318;-60
2022/03/30 07:21:28;;;;;;;40.13;24.90;;;12.00;99.90;;;;;;5033310;28;20293;-60
2022/03/30 07:23:55;;;;;;;40.73;23.50;;;11.80;99.90;;;;;;5033062;28;20313;-60
2022/03/30 07:26:21;;;;;;;42.63;22.20;;;11.80;99.90;;;;;;5032881;28;20206;-61
2022/03/30 07:28:48;;;;;;;41.77;23.90;;;11.80;99.90;;;;;;5033009;28;20607;-61
2022/03/30 07:31:15;;;;;;;34.13;21.93;;;11.70;99.90;;;;;;5033066;28;20283;-63
2022/03/30 07:33:41;;;;;;;36.43;23.23;;;11.50;99.90;;;;;;5033083;28;20210;-62
2022/03/30 07:36:09;;;;;;;35.57;21.33;;;11.40;99.90;;;;;;5032722;28;20210;-62
2022/03/30 07:38:36;;;;;;;39.20;21.53;;;11.40;99.90;;;;;;5032995;28;20203;-63
2022/03/30 07:41:03;;;;;;;36.27;22.30;;;11.30;99.90;;;;;;5032795;28;20214;-62
2022/03/30 07:43:30;;;;;;;36.30;21.97;;;11.30;99.90;;;;;;5032531;28;20345;-62
2022/03/30 07:45:57;;;;;;;36.60;21.30;;;11.50;99.90;;;;;;5032214;28;20256;-62
2022/03/30 07:48:24;;;;;;;35.73;20.77;;;11.70;99.90;;;;;;5032534;28;20728;-62
2022/03/30 07:50:51;;;;;;;36.23;20.93;;;11.90;99.90;;;;;;5033378;28;20221;-62
2022/03/30 07:53:19;;;;;;;36.37;20.73;;;12.00;99.90;;;;;;5032547;28;20264;-62
2022/03/30 07:55:47;;;;;;;32.57;19.93;;;12.10;99.90;;;;;;5032480;28;20210;-62
2022/03/30 07:58:13;;;;;;;35.37;20.27;;;12.20;99.90;;;;;;5032572;28;20202;-62
2022/03/30 08:00:40;;;;;;;34.77;20.50;;;12.20;99.90;;;;;;5032734;28;20241;-61
2022/03/30 08:03:08;;;;;;;33.90;20.47;;;12.20;99.90;;;;;;5032647;28;20576;-61
2022/03/30 08:05:35;;;;;;;35.23;21.13;;;12.40;99.90;;;;;;5032590;28;20206;-62
2022/03/30 08:08:02;;;;;;;39.77;19.67;;;12.50;99.90;;;;;;5032135;28;20689;-62
2022/03/30 08:10:30;;;;;;;31.43;19.10;;;12.70;99.90;;;;;;5032356;28;20226;-62
2022/03/30 08:12:57;;;;;;;35.27;19.63;;;12.70;99.90;;;;;;5032318;28;20229;-63
2022/03/30 08:15:24;;;;;;;30.93;19.63;;;12.70;99.90;;;;;;5032699;28;20202;-61
2022/03/30 08:17:51;;;;;;;33.03;18.43;;;12.60;99.90;;;;;;5032050;28;20214;-62
2022/03/30 08:23:03;;;;;;;26.40;17.57;;;12.50;99.90;;;;;;5032267;28;20232;-62
2022/03/30 08:25:31;;;;;;;28.10;18.23;;;12.50;99.90;;;;;;5032158;28;20217;-62
2022/03/30 08:27:58;;;;;;;30.00;17.93;;;12.50;99.90;;;;;;5032451;28;20236;-61
2022/03/30 08:30:25;;;;;;;29.43;17.47;;;12.70;99.90;;;;;;5032409;28;20234;-62
2022/03/30 08:32:52;;;;;;;26.87;16.93;;;12.80;99.90;;;;;;5032122;28;20592;-61
2022/03/30 08:35:19;;;;;;;23.73;17.17;;;12.90;99.90;;;;;;5032097;28;20217;-62
2022/03/30 08:37:46;;;;;;;25.87;16.67;;;12.90;99.90;;;;;;5031734;28;20214;-61
2022/03/30 08:40:12;;;;;;;30.23;17.33;;;13.00;99.90;;;;;;5031849;28;20234;-61
2022/03/30 08:42:42;;;;;;;26.83;16.43;;;13.10;99.90;;;;;;5031851;28;20702;-61
2022/03/30 08:45:10;;;;;;;29.00;15.77;;;13.10;99.90;;;;;;5031694;28;20214;-59
2022/03/30 08:47:38;;;;;;;30.10;16.17;;;13.00;99.90;;;;;;5031572;28;20267;-61
2022/03/30 08:50:06;;;;;;;28.33;16.10;;;12.90;99.90;;;;;;5032137;28;20291;-60
2022/03/30 08:52:33;;;;;;;25.20;15.37;;;12.80;99.90;;;;;;5032179;28;20205;-60
2022/03/30 08:55:01;;;;;;;26.43;15.90;;;12.90;99.90;;;;;;5031899;28;20202;-60
2022/03/30 08:57:28;;;;;;;28.33;14.97;;;13.10;99.90;;;;;;5031576;28;20222;-60
2022/03/30 09:00:02;;;;;;;25.30;16.37;;;13.30;99.90;;;;;;5031577;28;20276;-60
2022/03/30 09:02:37;;;;;;;31.30;15.33;;;13.60;99.90;;;;;;5031471;28;20673;-60
2022/03/30 09:05:19;;;;;;;29.23;15.00;;;13.90;99.90;;;;;;5031448;28;20216;-60
2022/03/30 09:07:49;;;;;;;28.77;16.07;;;14.10;99.90;;;;;;5031478;28;20297;-60
2022/03/30 09:10:18;;;;;;;21.33;14.93;;;14.40;99.90;;;;;;5031694;28;20226;-60
2022/03/30 09:12:46;;;;;;;27.93;16.27;;;14.60;99.90;;;;;;5031817;28;20203;-60
2022/03/30 09:15:15;;;;;;;27.90;14.87;;;14.80;99.90;;;;;;5031506;28;20217;-60
2022/03/30 09:17:43;;;;;;;26.87;15.07;;;15.00;99.90;;;;;;5031729;28;20215;-60
2022/03/30 09:20:16;;;;;;;26.57;15.63;;;15.10;99.90;;;;;;5031706;28;20237;-61
2022/03/30 09:22:44;;;;;;;26.27;16.10;;;15.20;99.90;;;;;;5031673;28;20663;-62
2022/03/30 09:25:12;;;;;;;26.37;15.27;;;15.30;99.90;;;;;;5031404;28;20293;-61
2022/03/30 09:27:42;;;;;;;29.27;15.13;;;15.40;99.90;;;;;;5031093;28;20234;-62
2022/03/30 09:30:10;;;;;;;25.17;14.00;;;15.70;99.90;;;;;;5031226;28;20720;-61
2022/03/30 09:32:40;;;;;;;22.43;13.67;;;15.90;99.90;;;;;;5034354;28;20214;-62
2022/03/30 09:35:19;;;;;;;30.37;13.27;;;16.10;99.90;;;;;;5035239;28;20324;-61
2022/03/30 09:37:45;;;;;;;25.07;11.60;;;16.10;99.90;;;;;;5034946;28;20212;-61
2022/03/30 09:40:13;;;;;;;26.87;14.50;;;16.20;99.90;;;;;;5034797;28;20708;-61
2022/03/30 09:42:40;;;;;;;25.57;10.57;;;16.10;99.90;;;;;;5035262;28;20297;-61
2022/03/30 09:45:07;;;;;;;29.70;11.03;;;16.10;99.90;;;;;;5035119;28;20206;-61
2022/03/30 09:47:39;;;;;;;21.43;9.57;;;16.00;99.90;;;;;;5034700;28;20214;-61
2022/03/30 09:50:09;;;;;;;23.83;10.70;;;16.10;99.90;;;;;;5034848;28;20287;-62
2022/03/30 09:52:35;;;;;;;20.00;9.67;;;16.10;99.90;;;;;;5034577;28;20206;-61
2022/03/30 09:55:04;;;;;;;23.97;9.87;;;16.00;99.90;;;;;;5035077;28;20206;-61
2022/03/30 09:57:42;;;;;;;30.13;10.87;;;16.00;99.90;;;;;;5034628;28;20210;-61
2022/03/30 10:00:12;;;;;;;27.40;8.90;;;15.80;99.90;;;;;;5034545;28;20230;-61
2022/03/30 10:02:42;;;;;;;20.60;9.60;;;15.80;99.90;;;;;;5034492;28;20208;-62
2022/03/30 10:05:11;;;;;;;27.37;9.50;;;15.80;99.90;;;;;;5034823;28;20205;-61
2022/03/30 10:07:38;;;;;;;22.57;10.03;;;15.80;99.90;;;;;;5034405;28;20309;-62
2022/03/30 10:10:06;;;;;;;20.20;9.00;;;15.80;99.90;;;;;;5034674;28;20234;-62
2022/03/30 10:12:33;;;;;;;17.73;10.03;;;15.70;99.90;;;;;;5034037;28;20555;-62
2022/03/30 10:15:00;;;;;;;16.47;10.20;;;15.60;99.90;;;;;;5032105;28;20202;-65
2022/03/30 10:17:29;;;;;;;24.33;9.67;;;15.60;99.90;;;;;;5033654;28;20217;-63
2022/03/30 10:20:01;;;;;;;23.17;10.00;;;15.50;99.90;;;;;;5033928;28;20262;-61
2022/03/30 10:23:00;;;;;;;22.47;9.83;;;15.30;99.90;;;;;;5034254;28;20301;-61
2022/03/30 10:25:53;;;;;;;26.37;11.00;;;15.00;99.90;;;;;;5034168;28;20210;-60
2022/03/30 10:28:23;;;;;;;26.73;11.63;;;14.80;99.90;;;;;;5033436;28;20206;-62
2022/03/30 10:30:53;;;;;;;32.00;15.40;;;14.80;99.90;;;;;;5033914;28;20297;-64
2022/03/30 10:33:31;;;;;;;31.13;12.50;;;14.80;99.90;;;;;;5033494;28;20713;-66
2022/03/30 10:36:00;;;;;;;27.17;12.70;;;14.80;99.90;;;;;;5033302;28;21144;-65
2022/03/30 10:38:27;;;;;;;26.20;13.33;;;14.90;99.90;;;;;;5033740;28;20248;-64
2022/03/30 10:41:08;;;;;;;32.93;13.67;;;15.10;99.90;;;;;;5033119;28;20213;-61
2022/03/30 10:43:35;;;;;;;29.57;12.93;;;15.20;99.90;;;;;;5032797;28;20225;-62
2022/03/30 10:46:04;;;;;;;31.73;14.70;;;15.30;99.90;;;;;;5033740;28;20202;-62
2022/03/30 10:48:38;;;;;;;34.23;14.80;;;15.30;99.90;;;;;;5033338;28;20701;-63
2022/03/30 10:51:19;;;;;;;34.40;15.43;;;15.40;99.90;;;;;;5033606;28;20205;-61
2022/03/30 10:53:47;;;;;;;29.27;15.27;;;15.50;99.90;;;;;;5033485;28;20205;-62
2022/03/30 10:56:34;;;;;;;36.10;16.60;;;15.60;99.90;;;;;;5033049;28;20210;-61
2022/03/30 10:59:09;;;;;;;34.93;16.77;;;15.70;99.90;;;;;;5033462;28;20226;-61
2022/03/30 11:01:37;;;;;;;32.87;15.67;;;15.60;99.90;;;;;;5033188;28;20208;-61
2022/03/30 11:04:05;;;;;;;36.10;17.17;;;15.30;99.90;;;;;;5033670;28;20237;-60
2022/03/30 11:06:36;;;;;;;37.00;17.83;;;15.00;99.90;;;;;;5028852;28;20460;-64
2022/03/30 11:09:05;;;;;;;40.37;16.97;;;15.10;99.90;;;;;;5032871;28;20578;-62
2022/03/30 11:11:35;;;;;;;32.23;16.73;;;15.20;99.90;;;;;;5033075;28;20209;-63
2022/03/30 11:14:28;;;;;;;28.40;15.50;;;15.20;99.90;;;;;;5032657;28;20641;-63
2022/03/30 11:16:56;;;;;;;28.53;15.07;;;15.40;99.90;;;;;;5032738;28;20214;-65
2022/03/30 11:19:29;;;;;;;29.10;14.97;;;15.50;99.90;;;;;;5033081;28;20222;-62
2022/03/30 11:22:08;;;;;;;30.17;14.67;;;15.30;99.90;;;;;;5032485;28;20265;-62
2022/03/30 11:24:35;;;;;;;20.13;9.60;;;15.20;99.90;;;;;;5032586;28;20221;-59
2022/03/30 11:27:23;;;;;;;21.57;9.60;;;15.00;99.90;;;;;;5032649;28;20633;-60
2022/03/30 11:30:18;;;;;;;25.80;9.77;;;14.90;99.90;;;;;;5032643;28;20313;-61
2022/03/30 11:32:57;;;;;;;18.07;9.53;;;15.20;99.90;;;;;;5017493;28;20214;-61
2022/03/30 11:35:28;;;;;;;20.80;9.00;;;15.50;99.90;;;;;;5032823;28;20206;-61
2022/03/30 11:38:07;;;;;;;20.57;8.90;;;15.60;99.90;;;;;;5032289;28;20216;-60
2022/03/30 11:40:39;;;;;;;23.48;9.50;;;15.80;99.90;;;;;;5032712;28;20288;-60
2022/03/30 11:43:07;;;;;;;25.60;10.13;;;15.60;99.90;;;;;;5032536;28;20218;-60
2022/03/30 11:45:33;;;;;;;25.77;11.00;;;15.10;99.90;;;;;;5031856;28;20206;-60
2022/03/30 11:48:03;;;;;;;25.07;10.70;;;15.00;99.90;;;;;;5032187;28;20206;-60
2022/03/30 11:50:32;;;;;;;21.03;10.40;;;15.10;99.90;;;;;;5032098;28;20265;-60
2022/03/30 11:53:02;;;;;;;27.77;11.10;;;15.20;99.90;;;;;;5032200;28;20236;-61
2022/03/30 11:55:30;;;;;;;20.63;11.53;;;15.20;99.90;;;;;;5031156;28;20210;-60
2022/03/30 11:58:00;;;;;;;22.53;10.70;;;14.90;99.90;;;;;;5031560;28;20214;-61
2022/03/30 12:00:29;;;;;;;21.77;9.47;;;14.90;99.90;;;;;;5032793;28;20325;-59
2022/03/30 12:02:57;;;;;;;18.03;9.73;;;15.00;99.90;;;;;;5032216;28;20213;-60
2022/03/30 12:05:25;;;;;;;23.97;8.90;;;15.10;99.90;;;;;;5031801;28;20636;-60
2022/03/30 12:07:53;;;;;;;20.73;8.60;;;15.10;99.90;;;;;;5031909;28;20632;-61
2022/03/30 12:10:27;;;;;;;27.50;9.00;;;15.10;99.90;;;;;;5031546;28;20328;-60
2022/03/30 12:12:55;;;;;;;20.40;8.10;;;15.30;99.90;;;;;;5032281;28;20209;-60
2022/03/30 12:15:21;;;;;;;15.13;7.23;;;15.40;99.90;;;;;;5032047;28;20202;-61
2022/03/30 12:17:54;;;;;;;18.30;7.77;;;15.30;99.90;;;;;;5031615;28;20261;-60
2022/03/30 12:20:24;;;;;;;17.63;8.40;;;15.20;99.90;;;;;;5031974;28;20269;-60
2022/03/30 12:22:59;;;;;;;16.10;7.40;;;15.20;99.90;;;;;;5031474;28;20206;-60
2022/03/30 12:25:32;;;;;;;17.43;7.33;;;15.30;99.90;;;;;;5031900;28;20240;-60
2022/03/30 12:28:00;;;;;;;13.47;6.80;;;15.40;99.90;;;;;;5031283;28;20206;-60
2022/03/30 12:30:30;;;;;;;16.40;6.83;;;15.50;99.90;;;;;;5031485;28;20236;-60
2022/03/30 12:32:57;;;;;;;20.00;7.83;;;15.20;99.90;;;;;;5031853;28;20206;-60
2022/03/30 12:35:29;;;;;;;16.20;7.53;;;15.20;99.90;;;;;;5031307;28;20206;-60
2022/03/30 12:38:05;;;;;;;15.30;6.87;;;15.20;99.90;;;;;;5031342;28;20206;-60
2022/03/30 12:40:36;;;;;;;19.37;6.83;;;15.30;99.90;;;;;;5031826;28;20295;-61
2022/03/30 12:43:04;;;;;;;17.53;6.90;;;15.30;99.90;;;;;;5031702;28;20221;-61